Liyang, China
Current Conditions -  °F | °C
As of 4:00 AM on Tuesday 23 Dec 2014 (Local Time) from ZSNJ Reporting Station
Haze Haze  
Wind Chill: 21°   Ceiling: Unl
Heat Index: 28°   Visibility: 3mi
Dew Point: 23°   Wind: 7mph
Humidity: 80%   Direction: 80°E
Pressure: 30.27"   Gusts: NA
Location:  31.43°N, 119.48°E
Report Text: ZSNJ 222000Z 08003MPS 5000 BR NSC M02/M05 Q1025 NOSIG
Loading
Personal Weather Stations






























Interactive Weather Map New forecast layout! Learn more

10-Day Weather Forecast

Advertisements
Track Severe Weather on mobile